createdAt,value
2019-01-16T00:00:43.257Z,100778.47
2019-01-16T00:01:44.907Z,100776.57
2019-01-16T00:02:46.524Z,100784.35
2019-01-16T00:03:53.915Z,100782.48
2019-01-16T00:04:40.166Z,100783.04
2019-01-16T00:05:32.484Z,100789.47
2019-01-16T00:06:42.756Z,100794.03
2019-01-16T00:07:36.090Z,100791.88
2019-01-16T00:08:43.256Z,100799.66
2019-01-16T00:09:56.170Z,100800.72
2019-01-16T00:10:54.443Z,100807.16
2019-01-16T00:11:52.319Z,100804.73
2019-01-16T00:12:45.769Z,100806.05
2019-01-16T00:13:27.611Z,100807.36
2019-01-16T00:14:19.523Z,100805.45
2019-01-16T00:15:30.039Z,100813.78
2019-01-16T00:16:16.209Z,100816.45
2019-01-16T00:17:14.182Z,100823.20
2019-01-16T00:18:16.993Z,100821.55
2019-01-16T00:19:13.449Z,100823.97
2019-01-16T00:20:07.077Z,100826.09
2019-01-16T00:21:01.098Z,100828.23
2019-01-16T00:21:52.353Z,100829.84
2019-01-16T00:22:59.111Z,100833.05
2019-01-16T00:23:51.338Z,100833.32
2019-01-16T00:24:45.887Z,100834.67
2019-01-16T00:25:55.962Z,100835.46
2019-01-16T00:27:06.616Z,100837.91
2019-01-16T00:28:17.255Z,100841.39
2019-01-16T00:29:18.283Z,100840.02
2019-01-16T00:30:13.688Z,100841.08
2019-01-16T00:31:24.330Z,100849.43
2019-01-16T00:32:18.303Z,100844.04
2019-01-16T00:33:19.532Z,100850.21
2019-01-16T00:34:27.348Z,100848.86
2019-01-16T00:35:23.447Z,100858.56
2019-01-16T00:36:11.999Z,100859.89
2019-01-16T00:37:13.776Z,100859.34
2019-01-16T00:38:27.619Z,100861.21
2019-01-16T00:39:40.781Z,100862.02
2019-01-16T00:40:28.620Z,100864.99
2019-01-16T00:41:32.962Z,100870.89
2019-01-16T00:42:28.603Z,100870.89
2019-01-16T00:43:29.850Z,100871.42
2019-01-16T00:44:15.711Z,100869.79
2019-01-16T00:45:10.208Z,100874.61
2019-01-16T00:46:20.435Z,100877.03
2019-01-16T00:47:09.763Z,100872.16
2019-01-16T00:47:55.470Z,100874.31
2019-01-16T00:49:00.012Z,100871.59
2019-01-16T00:50:05.560Z,100874.81
2019-01-16T00:51:06.864Z,100878.55
2019-01-16T00:52:05.642Z,100887.45
2019-01-16T00:53:08.301Z,100891.20
2019-01-16T00:54:09.192Z,100892.27
2019-01-16T00:55:07.604Z,100898.71
2019-01-16T00:55:52.957Z,100893.29
2019-01-16T00:56:47.163Z,100901.36
2019-01-16T00:57:40.697Z,100902.66
2019-01-16T00:58:39.055Z,100902.10
2019-01-16T00:59:33.410Z,100905.00
2019-01-16T01:00:48.743Z,100908.72
2019-01-16T01:01:56.157Z,100907.08
2019-01-16T01:02:49.851Z,100914.09
2019-01-16T01:03:43.017Z,100914.06
2019-01-16T01:04:39.295Z,100914.61
2019-01-16T01:05:40.901Z,100917.28
2019-01-16T01:06:29.264Z,100916.19
2019-01-16T01:07:27.587Z,100915.64
2019-01-16T01:08:17.380Z,100915.36
2019-01-16T01:09:16.099Z,100919.41
2019-01-16T01:10:22.064Z,100921.59
2019-01-16T01:11:13.129Z,100919.46
2019-01-16T01:12:07.707Z,100929.16
2019-01-16T01:13:09.145Z,100926.47
2019-01-16T01:14:07.402Z,100925.95
2019-01-16T01:15:06.713Z,100925.41
2019-01-16T01:16:07.314Z,100933.20
2019-01-16T01:17:21.964Z,100932.15
2019-01-16T01:18:20.452Z,100937.55
2019-01-16T01:19:28.165Z,100936.45
2019-01-16T01:20:22.821Z,100937.26
2019-01-16T01:21:16.334Z,100941.31
2019-01-16T01:22:18.523Z,100939.96
2019-01-16T01:23:35.112Z,100934.83
2019-01-16T01:24:43.107Z,100936.44
2019-01-16T01:25:37.175Z,100938.81
2019-01-16T01:26:35.745Z,100943.38
2019-01-16T01:27:34.321Z,100941.17
2019-01-16T01:28:39.427Z,100942.76
2019-01-16T01:29:47.233Z,100946.78
2019-01-16T01:30:41.915Z,100945.43
2019-01-16T01:31:38.556Z,100950.58
2019-01-16T01:32:37.429Z,100949.20
2019-01-16T01:33:31.733Z,100945.14
2019-01-16T01:34:45.276Z,100951.32
2019-01-16T01:35:40.898Z,100942.13
2019-01-16T01:36:34.687Z,100936.44
2019-01-16T01:37:30.726Z,100940.20
2019-01-16T01:38:24.551Z,100935.06
2019-01-16T01:39:21.101Z,100933.68
2019-01-16T01:40:17.197Z,100937.70
2019-01-16T01:41:10.967Z,100941.44
2019-01-16T01:42:04.744Z,100938.70
2019-01-16T01:43:07.987Z,100939.73
2019-01-16T01:43:55.408Z,100934.27
2019-01-16T01:44:49.090Z,100933.61
2019-01-16T01:45:42.909Z,100935.19
2019-01-16T01:46:35.524Z,100933.52
2019-01-16T01:47:28.952Z,100930.19
2019-01-16T01:48:41.948Z,100930.70
2019-01-16T01:49:40.963Z,100927.70
2019-01-16T01:50:45.156Z,100925.10
2019-01-16T01:51:38.808Z,100929.03
2019-01-16T01:52:32.462Z,100930.81
2019-01-16T01:53:27.579Z,100930.81
2019-01-16T01:54:25.347Z,100929.64
2019-01-16T01:55:18.479Z,100923.86
2019-01-16T01:56:10.728Z,100924.42
2019-01-16T01:57:09.571Z,100924.42
2019-01-16T01:58:06.919Z,100920.27
2019-01-16T01:58:52.729Z,100920.27
2019-01-16T01:59:53.566Z,100925.16
2019-01-16T02:00:54.757Z,100925.16
2019-01-16T02:01:49.942Z,100927.61
2019-01-16T02:02:45.936Z,100929.08
2019-01-16T02:03:39.053Z,100923.81
2019-01-16T02:04:40.069Z,100929.38
2019-01-16T02:05:37.821Z,100920.27
2019-01-16T02:06:27.019Z,100929.51
2019-01-16T02:07:39.860Z,100930.94
2019-01-16T02:08:23.442Z,100930.94
2019-01-16T02:09:13.402Z,100927.12
2019-01-16T02:10:23.749Z,100926.16
2019-01-16T02:11:21.099Z,100933.98
2019-01-16T02:12:16.377Z,100927.82
2019-01-16T02:13:09.633Z,100933.70
2019-01-16T02:14:10.829Z,100940.97
2019-01-16T02:15:11.749Z,100953.36
2019-01-16T02:16:05.252Z,100953.36
2019-01-16T02:17:07.814Z,100942.63
2019-01-16T02:18:02.453Z,100943.00
2019-01-16T02:18:56.646Z,100950.77
2019-01-16T02:19:52.673Z,100950.77
2019-01-16T02:21:03.649Z,100952.02
2019-01-16T02:21:59.146Z,100955.04
2019-01-16T02:22:53.422Z,100956.39
2019-01-16T02:23:47.054Z,100965.57
2019-01-16T02:24:35.859Z,100962.42
2019-01-16T02:25:30.796Z,100968.13
2019-01-16T02:26:26.556Z,100968.13
2019-01-16T02:27:22.095Z,100958.24
2019-01-16T02:28:25.945Z,100963.77
2019-01-16T02:29:34.195Z,100963.77
2019-01-16T02:30:31.755Z,100970.38
2019-01-16T02:31:27.280Z,100970.38
2019-01-16T02:32:31.671Z,100966.05
2019-01-16T02:33:35.244Z,100972.44
2019-01-16T02:34:32.912Z,100972.89
2019-01-16T02:35:34.028Z,100965.06
2019-01-16T02:36:35.299Z,100971.63
2019-01-16T02:37:32.197Z,100971.63
2019-01-16T02:38:40.005Z,100969.91
2019-01-16T02:39:24.732Z,100967.30
2019-01-16T02:40:12.703Z,100961.70
2019-01-16T02:41:07.640Z,100964.84
2019-01-16T02:41:56.947Z,100964.84
2019-01-16T02:42:50.673Z,100961.23
2019-01-16T02:43:47.104Z,100968.16
2019-01-16T02:44:45.555Z,100966.45
2019-01-16T02:45:39.040Z,100966.45
2019-01-16T02:46:33.326Z,100960.43
2019-01-16T02:47:32.264Z,100960.43
2019-01-16T02:48:30.155Z,100968.11
2019-01-16T02:49:28.609Z,100968.11
2019-01-16T02:50:27.208Z,100962.58
2019-01-16T02:51:19.799Z,100967.89
2019-01-16T02:52:09.930Z,100963.64
2019-01-16T02:53:03.495Z,100962.42
2019-01-16T02:53:58.711Z,100964.83
2019-01-16T02:54:52.262Z,100964.83
2019-01-16T02:56:02.643Z,100972.09
2019-01-16T02:56:54.663Z,100962.72
2019-01-16T02:57:43.516Z,100962.91
2019-01-16T02:58:47.632Z,100962.91
2019-01-16T02:59:42.271Z,100956.80
2019-01-16T03:00:44.232Z,100960.88
2019-01-16T03:01:46.286Z,100958.16
2019-01-16T03:02:33.110Z,100958.91
2019-01-16T03:03:26.477Z,100963.47
2019-01-16T03:04:19.539Z,100949.05
2019-01-16T03:05:17.542Z,100956.80
2019-01-16T03:06:22.356Z,100956.80
2019-01-16T03:07:12.363Z,100957.39
2019-01-16T03:07:55.577Z,100960.54
2019-01-16T03:08:40.498Z,100958.16
2019-01-16T03:09:36.219Z,100956.55
2019-01-16T03:10:26.780Z,100957.47
2019-01-16T03:11:31.345Z,100957.70
2019-01-16T03:12:26.697Z,100958.44
2019-01-16T03:13:25.364Z,100956.83
2019-01-16T03:14:09.688Z,100950.53
2019-01-16T03:14:56.033Z,100957.62
2019-01-16T03:15:44.598Z,100954.00
2019-01-16T03:16:41.501Z,100955.98
2019-01-16T03:17:35.322Z,100956.73
2019-01-16T03:18:45.973Z,100952.80
2019-01-16T03:19:33.848Z,100955.42
2019-01-16T03:20:29.664Z,100953.51
2019-01-16T03:21:30.861Z,100948.59
2019-01-16T03:22:26.660Z,100958.73
2019-01-16T03:23:20.462Z,100953.17
2019-01-16T03:24:17.705Z,100958.66
2019-01-16T03:25:19.508Z,100951.71
2019-01-16T03:26:12.915Z,100951.71
2019-01-16T03:27:23.090Z,100952.33
2019-01-16T03:28:24.694Z,100946.41
2019-01-16T03:29:35.914Z,100959.77
2019-01-16T03:30:30.622Z,100953.03
2019-01-16T03:31:26.719Z,100951.09
2019-01-16T03:32:20.911Z,100953.45
2019-01-16T03:33:18.955Z,100950.64
2019-01-16T03:34:13.001Z,100948.73
2019-01-16T03:35:07.077Z,100953.23
2019-01-16T03:36:08.954Z,100947.55
2019-01-16T03:37:14.756Z,100948.78
2019-01-16T03:38:20.199Z,100951.66
2019-01-16T03:39:11.349Z,100945.84
2019-01-16T03:40:15.188Z,100944.80
2019-01-16T03:41:09.061Z,100946.05
2019-01-16T03:41:55.446Z,100945.20
2019-01-16T03:43:03.251Z,100938.87
2019-01-16T03:44:10.713Z,100934.27
2019-01-16T03:45:15.182Z,100936.08
2019-01-16T03:46:11.456Z,100943.09
2019-01-16T03:47:07.054Z,100938.48
2019-01-16T03:48:03.099Z,100931.45
2019-01-16T03:48:59.175Z,100935.78
2019-01-16T03:50:07.728Z,100931.54
2019-01-16T03:51:03.326Z,100927.53
2019-01-16T03:51:57.457Z,100934.12
2019-01-16T03:53:05.017Z,100926.92
2019-01-16T03:53:59.723Z,100929.41
2019-01-16T03:54:55.329Z,100924.26
2019-01-16T03:55:57.371Z,100928.33
2019-01-16T03:56:53.415Z,100929.13
2019-01-16T03:58:07.090Z,100929.41
2019-01-16T03:59:08.753Z,100928.11
2019-01-16T04:00:02.370Z,100925.55
2019-01-16T04:01:06.023Z,100926.95
2019-01-16T04:02:06.661Z,100917.84
2019-01-16T04:03:04.683Z,100923.24
2019-01-16T04:03:59.971Z,100923.73
2019-01-16T04:04:53.623Z,100924.28
2019-01-16T04:06:06.731Z,100931.45
2019-01-16T04:07:04.568Z,100928.33
2019-01-16T04:07:58.086Z,100923.62
2019-01-16T04:08:50.820Z,100919.69
2019-01-16T04:09:44.449Z,100921.17
2019-01-16T04:10:39.563Z,100917.97
2019-01-16T04:11:23.949Z,100920.45
2019-01-16T04:12:30.961Z,100920.45
2019-01-16T04:13:29.748Z,100920.69
2019-01-16T04:14:23.489Z,100921.73
2019-01-16T04:15:24.261Z,100918.47
2019-01-16T04:16:15.548Z,100919.82
2019-01-16T04:17:19.882Z,100919.58
2019-01-16T04:18:13.248Z,100917.17
2019-01-16T04:19:07.775Z,100917.73
2019-01-16T04:20:18.094Z,100913.41
2019-01-16T04:21:31.447Z,100917.62
2019-01-16T04:22:25.109Z,100913.58
2019-01-16T04:23:23.118Z,100915.22
2019-01-16T04:24:37.377Z,100912.88
2019-01-16T04:25:30.775Z,100914.61
2019-01-16T04:26:18.038Z,100918.69
2019-01-16T04:27:19.116Z,100921.16
2019-01-16T04:28:12.468Z,100917.58
2019-01-16T04:29:25.881Z,100913.99
2019-01-16T04:30:24.004Z,100911.52
2019-01-16T04:31:15.895Z,100913.38
2019-01-16T04:32:26.986Z,100912.19
2019-01-16T04:33:26.284Z,100913.17
2019-01-16T04:34:14.262Z,100908.96
2019-01-16T04:35:07.863Z,100907.47
2019-01-16T04:35:59.908Z,100908.45
2019-01-16T04:36:57.911Z,100910.53
2019-01-16T04:38:06.789Z,100907.27
2019-01-16T04:39:00.720Z,100902.63
2019-01-16T04:39:54.921Z,100903.39
2019-01-16T04:40:48.383Z,100893.99
2019-01-16T04:41:35.274Z,100897.30
2019-01-16T04:42:29.167Z,100899.16
2019-01-16T04:43:23.702Z,100892.80
2019-01-16T04:44:18.278Z,100894.37
2019-01-16T04:45:11.840Z,100886.91
2019-01-16T04:46:18.000Z,100886.44
2019-01-16T04:47:18.380Z,100876.71
2019-01-16T04:48:21.723Z,100878.15
2019-01-16T04:49:30.225Z,100873.86
2019-01-16T04:50:38.743Z,100871.06
2019-01-16T04:51:40.028Z,100872.02
2019-01-16T04:52:31.003Z,100875.05
2019-01-16T04:53:45.089Z,100868.76
2019-01-16T04:54:41.309Z,100863.71
2019-01-16T04:55:45.740Z,100862.98
2019-01-16T04:56:40.788Z,100866.09
2019-01-16T04:57:42.834Z,100858.36
2019-01-16T04:58:37.299Z,100859.95
2019-01-16T04:59:35.787Z,100853.56
2019-01-16T05:00:34.346Z,100850.98
2019-01-16T05:01:35.978Z,100847.30
2019-01-16T05:02:33.981Z,100842.65
2019-01-16T05:03:41.889Z,100840.41
2019-01-16T05:04:36.116Z,100836.42
2019-01-16T05:05:31.203Z,100839.14
2019-01-16T05:06:39.343Z,100839.94
2019-01-16T05:07:37.574Z,100839.62
2019-01-16T05:08:51.136Z,100840.50
2019-01-16T05:09:45.370Z,100834.34
2019-01-16T05:10:38.758Z,100836.58
2019-01-16T05:11:39.593Z,100838.42
2019-01-16T05:12:35.390Z,100834.98
2019-01-16T05:13:23.787Z,100826.74
2019-01-16T05:14:18.375Z,100830.25
2019-01-16T05:15:12.273Z,100818.16
2019-01-16T05:16:13.837Z,100819.15
2019-01-16T05:17:21.777Z,100811.94
2019-01-16T05:18:29.500Z,100812.89
2019-01-16T05:19:22.746Z,100817.44
2019-01-16T05:20:16.623Z,100815.05
2019-01-16T05:21:12.054Z,100811.30
2019-01-16T05:22:06.642Z,100813.61
2019-01-16T05:23:08.489Z,100809.67
2019-01-16T05:24:09.436Z,100810.30
2019-01-16T05:25:05.524Z,100808.78
2019-01-16T05:25:58.979Z,100798.45
2019-01-16T05:26:54.410Z,100793.48
2019-01-16T05:27:49.174Z,100796.77
2019-01-16T05:28:42.872Z,100789.78
2019-01-16T05:29:30.032Z,100796.45
2019-01-16T05:30:27.367Z,100793.20
2019-01-16T05:31:41.617Z,100793.67
2019-01-16T05:32:49.598Z,100797.57
2019-01-16T05:33:41.725Z,100791.72
2019-01-16T05:34:39.677Z,100789.97
2019-01-16T05:35:41.140Z,100790.77
2019-01-16T05:36:32.555Z,100782.13
2019-01-16T05:37:25.748Z,100782.78
2019-01-16T05:38:30.947Z,100779.11
2019-01-16T05:39:33.810Z,100786.39
2019-01-16T05:40:30.281Z,100779.11
2019-01-16T05:41:34.208Z,100774.14
2019-01-16T05:42:35.947Z,100774.53
2019-01-16T05:43:34.289Z,100767.62
2019-01-16T05:44:27.073Z,100768.23
2019-01-16T05:45:21.115Z,100769.73
2019-01-16T05:46:29.097Z,100769.88
2019-01-16T05:47:22.804Z,100767.72
2019-01-16T05:48:10.766Z,100768.98
2019-01-16T05:49:09.051Z,100762.51
2019-01-16T05:50:09.284Z,100758.09
2019-01-16T05:51:03.721Z,100763.22
2019-01-16T05:51:49.316Z,100755.61
2019-01-16T05:52:40.448Z,100752.76
2019-01-16T05:53:41.837Z,100751.20
2019-01-16T05:54:35.346Z,100750.78
2019-01-16T05:55:28.988Z,100738.33
2019-01-16T05:56:29.895Z,100738.06
2019-01-16T05:57:33.825Z,100730.59
2019-01-16T05:58:26.994Z,100737.54
2019-01-16T05:59:10.435Z,100733.48
2019-01-16T06:00:08.640Z,100729.06
2019-01-16T06:01:03.738Z,100729.53
2019-01-16T06:01:58.721Z,100730.92
2019-01-16T06:02:53.881Z,100733.34
2019-01-16T06:04:00.415Z,100726.59
2019-01-16T06:05:01.662Z,100718.88
2019-01-16T06:05:57.097Z,100731.05
2019-01-16T06:07:01.318Z,100724.34
2019-01-16T06:07:54.870Z,100724.56
2019-01-16T06:08:48.353Z,100718.88
2019-01-16T06:09:44.057Z,100717.31
2019-01-16T06:10:48.043Z,100716.98
2019-01-16T06:11:43.311Z,100713.56
2019-01-16T06:12:36.699Z,100713.23
2019-01-16T06:13:26.877Z,100716.19
2019-01-16T06:14:33.676Z,100712.09
2019-01-16T06:15:23.432Z,100706.31
2019-01-16T06:16:27.215Z,100703.02
2019-01-16T06:17:28.499Z,100701.89
2019-01-16T06:18:22.967Z,100692.58
2019-01-16T06:19:14.697Z,100703.14
2019-01-16T06:20:15.925Z,100691.27
2019-01-16T06:21:09.546Z,100687.84
2019-01-16T06:22:03.676Z,100692.17
2019-01-16T06:22:53.488Z,100683.42
2019-01-16T06:23:57.451Z,100683.76
2019-01-16T06:24:55.097Z,100680.98
2019-01-16T06:25:48.299Z,100680.50
2019-01-16T06:26:46.013Z,100674.98
2019-01-16T06:27:34.846Z,100671.55
2019-01-16T06:28:40.577Z,100673.57
2019-01-16T06:29:35.074Z,100674.01
2019-01-16T06:30:22.971Z,100672.08
2019-01-16T06:31:11.617Z,100670.38
2019-01-16T06:32:13.167Z,100667.42
2019-01-16T06:33:09.172Z,100661.75
2019-01-16T06:33:55.403Z,100656.53
2019-01-16T06:35:08.757Z,100648.02
2019-01-16T06:36:03.000Z,100650.41
2019-01-16T06:37:07.513Z,100644.27
2019-01-16T06:38:01.226Z,100643.23
2019-01-16T06:39:00.246Z,100635.17
2019-01-16T06:39:59.559Z,100641.28
2019-01-16T06:41:04.567Z,100637.73
2019-01-16T06:42:08.779Z,100635.98
2019-01-16T06:43:14.353Z,100633.47
2019-01-16T06:44:19.031Z,100626.86
2019-01-16T06:45:13.485Z,100632.50
2019-01-16T06:46:09.213Z,100625.87
2019-01-16T06:46:55.863Z,100622.42
2019-01-16T06:48:02.559Z,100619.00
2019-01-16T06:48:54.427Z,100614.91
2019-01-16T06:49:50.147Z,100615.81
2019-01-16T06:50:51.076Z,100613.16
2019-01-16T06:51:36.754Z,100615.02
2019-01-16T06:52:24.137Z,100607.33
2019-01-16T06:53:19.700Z,100606.53
2019-01-16T06:54:29.630Z,100603.91
2019-01-16T06:55:26.065Z,100603.61
2019-01-16T06:56:27.409Z,100604.83
2019-01-16T06:57:15.775Z,100604.27
2019-01-16T06:58:12.687Z,100600.67
2019-01-16T06:59:06.227Z,100597.02
2019-01-16T07:00:03.983Z,100596.55
2019-01-16T07:01:15.140Z,100593.36
2019-01-16T07:02:10.264Z,100592.23
2019-01-16T07:03:04.600Z,100584.23
2019-01-16T07:04:15.302Z,100585.43
2019-01-16T07:05:09.368Z,100585.90
2019-01-16T07:06:04.852Z,100581.48
2019-01-16T07:07:07.687Z,100577.55
2019-01-16T07:08:03.107Z,100573.30
2019-01-16T07:08:53.474Z,100571.67
2019-01-16T07:09:48.066Z,100572.17
2019-01-16T07:10:38.392Z,100565.61
2019-01-16T07:11:31.945Z,100566.17
2019-01-16T07:12:28.206Z,100565.61
2019-01-16T07:13:13.309Z,100555.35
2019-01-16T07:14:09.209Z,100552.47
2019-01-16T07:15:04.123Z,100556.62
2019-01-16T07:16:14.957Z,100550.05
2019-01-16T07:17:00.866Z,100550.28
2019-01-16T07:17:54.659Z,100555.06
2019-01-16T07:18:48.890Z,100548.48
2019-01-16T07:19:43.583Z,100547.59
2019-01-16T07:20:36.471Z,100538.99
2019-01-16T07:21:41.358Z,100541.02
2019-01-16T07:22:35.721Z,100534.22
2019-01-16T07:23:31.931Z,100532.36
2019-01-16T07:24:26.062Z,100530.53
2019-01-16T07:25:22.090Z,100529.64
2019-01-16T07:26:29.540Z,100525.78
2019-01-16T07:27:23.135Z,100527.61
2019-01-16T07:28:33.963Z,100520.70
2019-01-16T07:29:33.472Z,100517.42
2019-01-16T07:30:41.653Z,100518.34
2019-01-16T07:31:25.711Z,100514.96
2019-01-16T07:32:19.944Z,100514.78
2019-01-16T07:33:34.228Z,100510.27
2019-01-16T07:34:28.331Z,100510.40
2019-01-16T07:35:32.217Z,100512.12
2019-01-16T07:36:33.713Z,100508.28
2019-01-16T07:37:29.865Z,100505.08
2019-01-16T07:38:35.163Z,100509.29
2019-01-16T07:39:29.463Z,100503.73
2019-01-16T07:40:28.182Z,100503.17
2019-01-16T07:41:21.655Z,100502.94
2019-01-16T07:42:15.701Z,100503.61
2019-01-16T07:43:14.598Z,100504.41
2019-01-16T07:44:13.345Z,100499.19
2019-01-16T07:45:09.274Z,100499.55
2019-01-16T07:46:03.144Z,100504.21
2019-01-16T07:47:13.979Z,100496.42
2019-01-16T07:48:00.987Z,100501.42
2019-01-16T07:49:02.256Z,100497.34
2019-01-16T07:49:55.918Z,100494.38
2019-01-16T07:50:56.676Z,100492.80
2019-01-16T07:51:47.549Z,100482.80
2019-01-16T07:52:41.130Z,100488.25
2019-01-16T07:53:36.280Z,100489.61
2019-01-16T07:54:23.690Z,100484.39
2019-01-16T07:55:11.753Z,100485.53
2019-01-16T07:56:12.295Z,100485.53
2019-01-16T07:57:00.905Z,100481.44
2019-01-16T07:57:54.596Z,100482.31
2019-01-16T07:59:01.585Z,100478.45
2019-01-16T08:00:05.387Z,100474.14
2019-01-16T08:00:56.447Z,100475.73
2019-01-16T08:02:00.699Z,100468.23
2019-01-16T08:02:55.745Z,100473.68
2019-01-16T08:03:49.418Z,100469.37
2019-01-16T08:04:42.892Z,100471.17
2019-01-16T08:05:36.270Z,100464.47
2019-01-16T08:06:34.323Z,100466.41
2019-01-16T08:07:41.049Z,100464.81
2019-01-16T08:08:48.648Z,100466.84
2019-01-16T08:09:55.911Z,100466.62
2019-01-16T08:10:48.980Z,100465.70
2019-01-16T08:11:46.896Z,100468.11
2019-01-16T08:12:40.183Z,100470.81
2019-01-16T08:13:35.355Z,100468.53
2019-01-16T08:14:29.080Z,100466.48
2019-01-16T08:15:22.173Z,100465.56
2019-01-16T08:16:15.872Z,100465.73
2019-01-16T08:17:09.157Z,100463.45
2019-01-16T08:17:54.993Z,100464.53
2019-01-16T08:18:49.044Z,100459.33
2019-01-16T08:19:50.658Z,100461.98
2019-01-16T08:20:44.235Z,100463.61
2019-01-16T08:21:39.704Z,100460.77
2019-01-16T08:22:34.145Z,100467.06
2019-01-16T08:23:23.574Z,100467.16
2019-01-16T08:24:27.698Z,100465.95
2019-01-16T08:25:12.909Z,100468.87
2019-01-16T08:26:23.358Z,100470.66
2019-01-16T08:27:27.670Z,100465.84
2019-01-16T08:28:38.554Z,100465.33
2019-01-16T08:29:25.779Z,100470.03
2019-01-16T08:30:19.508Z,100462.30
2019-01-16T08:31:15.276Z,100457.42
2019-01-16T08:31:59.290Z,100459.34
2019-01-16T08:32:56.185Z,100454.24
2019-01-16T08:33:45.347Z,100456.16
2019-01-16T08:34:38.819Z,100453.21
2019-01-16T08:35:34.733Z,100457.29
2019-01-16T08:36:39.120Z,100451.05
2019-01-16T08:37:46.606Z,100456.20
2019-01-16T08:38:41.989Z,100459.25
2019-01-16T08:39:30.523Z,100455.09
2019-01-16T08:40:35.755Z,100453.50
2019-01-16T08:41:34.352Z,100451.67
2019-01-16T08:42:27.602Z,100448.25
2019-01-16T08:43:37.662Z,100452.98
2019-01-16T08:44:33.225Z,100447.97
2019-01-16T08:45:21.771Z,100450.73
2019-01-16T08:46:26.674Z,100449.70
2019-01-16T08:47:33.947Z,100445.87
2019-01-16T08:48:27.919Z,100443.30
2019-01-16T08:49:22.178Z,100441.09
2019-01-16T08:50:08.126Z,100440.59
2019-01-16T08:51:01.971Z,100442.50
2019-01-16T08:51:56.291Z,100443.80
2019-01-16T08:53:00.903Z,100444.28
2019-01-16T08:54:02.232Z,100440.82
2019-01-16T08:54:58.479Z,100438.43
2019-01-16T08:55:49.027Z,100441.47
2019-01-16T08:56:47.366Z,100438.28
2019-01-16T08:57:57.520Z,100442.36
2019-01-16T08:58:52.860Z,100445.88
2019-01-16T08:59:48.776Z,100445.55
2019-01-16T09:00:49.987Z,100446.34
2019-01-16T09:01:52.275Z,100443.06
2019-01-16T09:02:46.564Z,100447.14
2019-01-16T09:03:41.287Z,100450.19
2019-01-16T09:04:34.680Z,100446.67
2019-01-16T09:05:30.715Z,100445.55
2019-01-16T09:06:35.595Z,100445.31
2019-01-16T09:07:31.191Z,100446.99
2019-01-16T09:08:21.530Z,100447.26
2019-01-16T09:09:19.288Z,100450.45
2019-01-16T09:10:14.387Z,100450.86
2019-01-16T09:11:19.766Z,100446.97
2019-01-16T09:12:13.307Z,100449.68
2019-01-16T09:13:09.251Z,100452.30
2019-01-16T09:14:03.588Z,100454.30
2019-01-16T09:14:57.778Z,100451.83
2019-01-16T09:15:53.893Z,100451.03
2019-01-16T09:16:47.377Z,100451.83
2019-01-16T09:17:36.284Z,100455.98
2019-01-16T09:18:30.281Z,100458.70
2019-01-16T09:19:16.278Z,100452.72
2019-01-16T09:20:00.317Z,100455.90
2019-01-16T09:20:45.185Z,100451.83
2019-01-16T09:21:52.213Z,100451.74
2019-01-16T09:22:59.362Z,100457.73
2019-01-16T09:24:13.024Z,100449.83
2019-01-16T09:25:12.168Z,100455.02
2019-01-16T09:26:05.747Z,100460.92
2019-01-16T09:26:52.864Z,100456.61
2019-01-16T09:27:42.183Z,100455.49
2019-01-16T09:28:35.479Z,100455.49
2019-01-16T09:29:29.734Z,100453.66
2019-01-16T09:30:35.245Z,100451.74
2019-01-16T09:31:29.223Z,100455.90
2019-01-16T09:32:37.294Z,100456.14
2019-01-16T09:33:39.160Z,100454.55
2019-01-16T09:34:37.919Z,100453.75
2019-01-16T09:35:33.491Z,100463.25
2019-01-16T09:36:31.853Z,100459.73
2019-01-16T09:37:25.858Z,100465.41
2019-01-16T09:38:37.122Z,100461.56
2019-01-16T09:39:39.408Z,100465.08
2019-01-16T09:40:50.432Z,100466.52
2019-01-16T09:41:43.972Z,100465.41
2019-01-16T09:42:38.395Z,100469.23
2019-01-16T09:43:43.412Z,100467.32
2019-01-16T09:44:44.945Z,100473.08
2019-01-16T09:45:47.009Z,100475.55
2019-01-16T09:46:54.895Z,100473.95
2019-01-16T09:47:48.782Z,100479.39
2019-01-16T09:48:49.184Z,100477.55
2019-01-16T09:49:56.565Z,100483.78
2019-01-16T09:50:54.961Z,100481.39
2019-01-16T09:51:50.820Z,100480.44
2019-01-16T09:52:41.895Z,100481.80
2019-01-16T09:53:43.006Z,100486.98
2019-01-16T09:54:44.182Z,100486.03
2019-01-16T09:55:36.750Z,100490.21
2019-01-16T09:56:34.303Z,100493.33
2019-01-16T09:57:38.183Z,100487.42
2019-01-16T09:58:34.212Z,100489.89
2019-01-16T09:59:25.786Z,100495.09
2019-01-16T10:00:19.298Z,100488.06
2019-01-16T10:01:23.265Z,100494.61
2019-01-16T10:02:16.557Z,100495.48
2019-01-16T10:03:12.748Z,100499.80
2019-01-16T10:04:19.658Z,100496.37
2019-01-16T10:05:17.379Z,100499.72
2019-01-16T10:06:10.998Z,100500.25
2019-01-16T10:07:11.750Z,100504.40
2019-01-16T10:08:09.862Z,100507.52
2019-01-16T10:09:03.435Z,100503.20
2019-01-16T10:09:57.214Z,100509.74
2019-01-16T10:11:01.009Z,100503.92
2019-01-16T10:11:56.094Z,100509.42
2019-01-16T10:13:00.230Z,100511.41
2019-01-16T10:14:04.277Z,100507.91
2019-01-16T10:15:09.920Z,100514.25
2019-01-16T10:16:10.729Z,100511.30
2019-01-16T10:17:04.395Z,100519.99
2019-01-16T10:18:08.425Z,100515.28
2019-01-16T10:19:01.407Z,100518.59
2019-01-16T10:19:55.160Z,100518.59
2019-01-16T10:21:01.962Z,100521.58
2019-01-16T10:21:55.467Z,100523.78
2019-01-16T10:22:50.807Z,100523.22
2019-01-16T10:23:44.874Z,100529.20
2019-01-16T10:24:35.069Z,100520.10
2019-01-16T10:25:20.539Z,100523.93
2019-01-16T10:26:14.457Z,100522.97
2019-01-16T10:27:09.657Z,100524.56
2019-01-16T10:28:03.715Z,100524.92
2019-01-16T10:29:17.499Z,100522.69
2019-01-16T10:30:13.424Z,100526.16
2019-01-16T10:31:11.392Z,100526.88
2019-01-16T10:32:12.892Z,100526.01
2019-01-16T10:33:04.354Z,100524.66
2019-01-16T10:33:59.288Z,100532.55
2019-01-16T10:34:57.781Z,100529.59
2019-01-16T10:35:52.070Z,100527.92
2019-01-16T10:36:46.051Z,100528.23
2019-01-16T10:37:51.242Z,100531.19
2019-01-16T10:38:58.801Z,100530.08
2019-01-16T10:39:54.613Z,100531.67
2019-01-16T10:40:49.497Z,100534.87
2019-01-16T10:41:43.693Z,100533.27
2019-01-16T10:42:37.622Z,100532.71
2019-01-16T10:43:32.319Z,100537.34
2019-01-16T10:44:43.387Z,100537.34
2019-01-16T10:45:53.693Z,100541.41
2019-01-16T10:46:47.509Z,100536.86
2019-01-16T10:47:51.586Z,100534.53
2019-01-16T10:48:40.555Z,100541.08
2019-01-16T10:49:43.007Z,100538.12
2019-01-16T10:50:33.699Z,100538.12
2019-01-16T10:51:32.578Z,100542.98
2019-01-16T10:52:25.942Z,100540.03
2019-01-16T10:53:23.986Z,100547.09
2019-01-16T10:54:18.443Z,100539.59
2019-01-16T10:55:19.831Z,100546.13
2019-01-16T10:56:15.392Z,100540.22
2019-01-16T10:57:10.806Z,100544.61
2019-01-16T10:58:15.714Z,100542.13